createdAt,value
2023-01-31T00:01:31.758Z,2.40
2023-01-31T00:04:04.272Z,2.60
2023-01-31T00:06:33.422Z,2.60
2023-01-31T00:09:01.428Z,2.30
2023-01-31T00:11:29.670Z,2.80
2023-01-31T00:13:58.471Z,1.90
2023-01-31T00:16:26.193Z,2.67
2023-01-31T00:18:52.726Z,2.00
2023-01-31T00:21:21.667Z,2.67
2023-01-31T00:23:49.292Z,2.50
2023-01-31T00:26:24.380Z,2.53
2023-01-31T00:28:52.640Z,3.00
2023-01-31T00:31:20.777Z,2.90
2023-01-31T00:33:50.760Z,2.40
2023-01-31T00:36:27.611Z,3.63
2023-01-31T00:38:56.898Z,2.77
2023-01-31T00:41:25.244Z,2.60
2023-01-31T00:43:51.751Z,3.40
2023-01-31T00:46:22.334Z,2.90
2023-01-31T00:48:49.677Z,2.63
2023-01-31T00:51:16.711Z,4.07
2023-01-31T00:53:43.463Z,2.77
2023-01-31T00:56:16.125Z,2.80
2023-01-31T00:58:43.485Z,2.77
2023-01-31T01:01:23.808Z,2.57
2023-01-31T01:03:52.063Z,2.80
2023-01-31T01:06:19.394Z,2.30
2023-01-31T01:08:46.073Z,2.27
2023-01-31T01:11:16.317Z,2.57
2023-01-31T01:13:44.075Z,2.40
2023-01-31T01:16:14.201Z,2.00
2023-01-31T01:18:41.488Z,2.03
2023-01-31T01:21:09.923Z,2.53
2023-01-31T01:23:37.962Z,2.70
2023-01-31T01:26:05.268Z,1.87
2023-01-31T01:28:35.236Z,2.10
2023-01-31T01:31:13.324Z,2.47
2023-01-31T01:33:41.374Z,2.33
2023-01-31T01:36:13.219Z,2.90
2023-01-31T01:38:41.035Z,2.00
2023-01-31T01:41:08.917Z,2.43
2023-01-31T01:43:44.557Z,2.53
2023-01-31T01:46:17.430Z,2.80
2023-01-31T01:48:48.321Z,3.33
2023-01-31T01:51:16.051Z,2.90
2023-01-31T01:53:44.166Z,2.87
2023-01-31T01:56:16.535Z,2.73
2023-01-31T01:58:51.076Z,2.23
2023-01-31T02:01:18.569Z,2.87
2023-01-31T02:03:49.109Z,3.40
2023-01-31T02:06:16.443Z,3.50
2023-01-31T02:08:43.849Z,2.90
2023-01-31T02:11:31.089Z,3.70
2023-01-31T02:14:17.002Z,3.17
2023-01-31T02:16:44.569Z,3.03
2023-01-31T02:19:24.368Z,2.97
2023-01-31T02:22:03.211Z,3.30
2023-01-31T02:24:49.094Z,3.63
2023-01-31T02:27:37.021Z,3.10
2023-01-31T02:30:30.888Z,3.27
2023-01-31T02:33:05.309Z,1.97
2023-01-31T02:35:58.177Z,2.40
2023-01-31T02:38:38.824Z,2.87
2023-01-31T02:41:29.661Z,2.10
2023-01-31T02:44:30.820Z,2.50
2023-01-31T02:47:18.142Z,2.50
2023-01-31T02:50:06.506Z,3.40
2023-01-31T02:52:39.640Z,2.37
2023-01-31T02:55:41.474Z,2.17
2023-01-31T02:58:11.670Z,2.37
2023-01-31T03:00:42.081Z,2.30
2023-01-31T03:03:18.158Z,2.47
2023-01-31T03:05:44.881Z,1.97
2023-01-31T03:08:16.338Z,2.17
2023-01-31T03:11:04.057Z,2.40
2023-01-31T03:13:50.379Z,2.20
2023-01-31T03:16:46.951Z,2.37
2023-01-31T03:19:16.632Z,2.00
2023-01-31T03:21:54.816Z,3.20
2023-01-31T03:24:26.030Z,2.53
2023-01-31T03:26:56.814Z,2.57
2023-01-31T03:29:28.019Z,1.60
2023-01-31T03:32:00.319Z,2.80
2023-01-31T03:34:27.682Z,3.00
2023-01-31T03:37:26.659Z,2.23
2023-01-31T03:40:05.697Z,2.77
2023-01-31T03:42:54.960Z,3.17
2023-01-31T03:45:28.637Z,4.13
2023-01-31T03:47:57.454Z,3.30
2023-01-31T03:50:28.987Z,2.10
2023-01-31T03:53:06.552Z,3.00
2023-01-31T03:55:43.482Z,4.07
2023-01-31T03:58:13.105Z,3.17
2023-01-31T04:00:43.614Z,2.57
2023-01-31T04:03:24.783Z,4.47
2023-01-31T04:05:51.441Z,3.53
2023-01-31T04:08:20.785Z,4.10
2023-01-31T04:10:57.860Z,3.17
2023-01-31T04:13:24.409Z,3.00
2023-01-31T04:15:50.932Z,3.37
2023-01-31T04:18:17.447Z,2.87
2023-01-31T04:20:43.942Z,4.50
2023-01-31T04:23:10.467Z,3.90
2023-01-31T04:25:36.959Z,2.53
2023-01-31T04:28:04.641Z,2.60
2023-01-31T04:30:31.173Z,2.80
2023-01-31T04:32:57.662Z,2.73
2023-01-31T04:35:24.528Z,2.80
2023-01-31T04:37:51.009Z,3.70
2023-01-31T04:40:17.976Z,2.37
2023-01-31T04:42:44.562Z,2.07
2023-01-31T04:45:11.262Z,2.30
2023-01-31T04:47:37.811Z,3.57
2023-01-31T04:50:05.044Z,2.37
2023-01-31T04:52:31.780Z,2.37
2023-01-31T04:54:58.765Z,2.60
2023-01-31T04:57:25.745Z,2.60
2023-01-31T04:59:52.303Z,3.13
2023-01-31T05:02:19.055Z,2.23
2023-01-31T05:04:45.710Z,2.73
2023-01-31T05:07:12.471Z,3.53
2023-01-31T05:09:39.241Z,2.13
2023-01-31T05:12:07.265Z,2.67
2023-01-31T05:14:34.007Z,2.57
2023-01-31T05:17:00.530Z,2.43
2023-01-31T05:19:27.087Z,2.60
2023-01-31T05:21:58.967Z,3.00
2023-01-31T05:24:31.474Z,2.47
2023-01-31T05:27:00.520Z,2.60
2023-01-31T05:29:32.427Z,3.23
2023-01-31T05:32:01.793Z,4.90
2023-01-31T05:34:31.221Z,3.27
2023-01-31T05:36:58.026Z,2.40
2023-01-31T05:39:24.832Z,3.50
2023-01-31T05:41:52.817Z,3.40
2023-01-31T05:44:20.530Z,2.77
2023-01-31T05:46:47.289Z,2.70
2023-01-31T05:49:14.006Z,2.40
2023-01-31T05:51:41.931Z,2.40
2023-01-31T05:54:08.621Z,2.63
2023-01-31T05:56:35.216Z,2.60
2023-01-31T05:59:03.302Z,2.20
2023-01-31T06:01:30.834Z,2.83
2023-01-31T06:03:58.107Z,2.17
2023-01-31T06:06:24.706Z,2.87
2023-01-31T06:08:51.348Z,3.83
2023-01-31T06:11:18.524Z,2.40
2023-01-31T06:13:45.535Z,2.83
2023-01-31T06:16:12.482Z,2.80
2023-01-31T06:18:39.139Z,2.77
2023-01-31T06:21:05.876Z,3.20
2023-01-31T06:23:34.356Z,3.57
2023-01-31T06:26:01.258Z,4.43
2023-01-31T06:28:27.888Z,3.20
2023-01-31T06:30:54.715Z,2.40
2023-01-31T06:33:22.712Z,1.80
2023-01-31T06:35:50.997Z,2.23
2023-01-31T06:38:17.583Z,2.33
2023-01-31T06:40:44.140Z,1.60
2023-01-31T06:43:11.091Z,2.00
2023-01-31T06:45:37.861Z,2.30
2023-01-31T06:48:04.554Z,2.73
2023-01-31T06:50:31.647Z,2.80
2023-01-31T06:52:59.645Z,2.33
2023-01-31T06:55:26.216Z,3.10
2023-01-31T06:57:52.722Z,2.27
2023-01-31T07:00:21.098Z,2.10
2023-01-31T07:02:48.562Z,2.00
2023-01-31T07:05:15.627Z,2.40
2023-01-31T07:07:42.117Z,2.30
2023-01-31T07:10:09.898Z,2.50
2023-01-31T07:12:36.565Z,3.07
2023-01-31T07:15:03.457Z,2.67
2023-01-31T07:17:30.177Z,3.47
2023-01-31T07:19:56.975Z,3.70
2023-01-31T07:22:23.694Z,2.97
2023-01-31T07:24:51.092Z,2.77
2023-01-31T07:27:18.009Z,2.53
2023-01-31T07:29:44.677Z,2.97
2023-01-31T07:32:11.951Z,2.97
2023-01-31T07:34:38.481Z,2.80
2023-01-31T07:37:05.997Z,2.70
2023-01-31T07:39:32.558Z,3.07
2023-01-31T07:41:59.532Z,2.50
2023-01-31T07:44:26.094Z,3.13
2023-01-31T07:46:54.685Z,2.70
2023-01-31T07:49:21.245Z,3.37
2023-01-31T07:51:48.297Z,3.30
2023-01-31T07:54:14.898Z,3.40
2023-01-31T07:56:41.671Z,3.73
2023-01-31T07:59:08.279Z,3.63
2023-01-31T08:02:13.618Z,2.93
2023-01-31T08:04:40.163Z,3.97
2023-01-31T08:07:07.052Z,4.60
2023-01-31T08:09:33.624Z,4.20
2023-01-31T08:12:00.130Z,3.57
2023-01-31T08:14:28.228Z,3.53
2023-01-31T08:16:55.608Z,4.03
2023-01-31T08:19:22.842Z,4.23
2023-01-31T08:21:49.365Z,4.93
2023-01-31T08:24:15.983Z,6.80
2023-01-31T08:26:43.559Z,4.47
2023-01-31T08:29:10.287Z,3.83
2023-01-31T08:31:36.944Z,4.37
2023-01-31T08:34:03.680Z,4.10
2023-01-31T08:36:34.197Z,4.83
2023-01-31T08:39:01.044Z,6.57
2023-01-31T08:41:29.576Z,4.20
2023-01-31T08:43:59.035Z,6.50
2023-01-31T08:46:29.500Z,5.77
2023-01-31T08:48:56.070Z,5.87
2023-01-31T08:51:23.178Z,5.70
2023-01-31T08:53:50.154Z,6.20
2023-01-31T08:56:17.182Z,7.03
2023-01-31T08:58:44.730Z,6.80
2023-01-31T09:01:14.531Z,5.90
2023-01-31T09:03:43.889Z,6.00
2023-01-31T09:06:16.030Z,6.50
2023-01-31T09:08:43.064Z,6.10
2023-01-31T09:11:09.706Z,4.80
2023-01-31T09:13:37.127Z,7.87
2023-01-31T09:16:09.224Z,6.90
2023-01-31T09:18:37.953Z,7.70
2023-01-31T09:21:10.108Z,5.70
2023-01-31T09:23:36.673Z,7.13
2023-01-31T09:26:03.865Z,6.63
2023-01-31T09:28:31.012Z,6.70
2023-01-31T09:31:07.524Z,6.30
2023-01-31T09:33:35.508Z,6.20
2023-01-31T09:36:08.178Z,7.20
2023-01-31T09:38:35.750Z,6.63
2023-01-31T09:41:05.854Z,7.70
2023-01-31T09:43:44.033Z,8.53
2023-01-31T09:46:16.987Z,8.70
2023-01-31T09:48:46.898Z,8.93
2023-01-31T09:51:14.487Z,7.27
2023-01-31T09:53:42.210Z,9.37
2023-01-31T09:56:33.691Z,9.00
2023-01-31T09:59:15.512Z,8.47
2023-01-31T10:01:53.540Z,9.63
2023-01-31T10:04:57.271Z,10.00
2023-01-31T10:07:37.302Z,9.33
2023-01-31T10:10:06.764Z,9.17
2023-01-31T10:12:50.078Z,10.93
2023-01-31T10:15:42.556Z,10.07
2023-01-31T10:18:16.793Z,9.50
2023-01-31T10:20:50.034Z,10.20
2023-01-31T10:23:26.455Z,10.40
2023-01-31T10:26:04.381Z,9.97
2023-01-31T10:28:42.956Z,11.13
2023-01-31T10:31:22.522Z,10.07
2023-01-31T10:34:06.849Z,10.93
2023-01-31T10:36:58.794Z,9.80
2023-01-31T10:39:28.891Z,9.87
2023-01-31T10:42:30.415Z,9.90
2023-01-31T10:45:17.477Z,10.30
2023-01-31T10:48:01.325Z,9.90
2023-01-31T10:50:40.484Z,10.27
2023-01-31T10:53:52.315Z,12.00
2023-01-31T10:56:44.395Z,11.90
2023-01-31T10:59:19.349Z,11.43
2023-01-31T11:01:45.867Z,10.60
2023-01-31T11:04:35.511Z,11.10
2023-01-31T11:07:02.608Z,11.17
2023-01-31T11:09:34.237Z,10.33
2023-01-31T11:12:04.481Z,11.33
2023-01-31T11:14:31.503Z,10.90
2023-01-31T11:17:21.365Z,10.63
2023-01-31T11:19:55.654Z,10.60
2023-01-31T11:22:28.984Z,10.97
2023-01-31T11:24:57.332Z,11.47
2023-01-31T11:27:31.638Z,12.67
2023-01-31T11:30:00.364Z,10.63
2023-01-31T11:32:34.177Z,12.10
2023-01-31T11:35:04.219Z,11.90
2023-01-31T11:37:34.291Z,12.90
2023-01-31T11:40:26.249Z,12.83
2023-01-31T11:42:55.034Z,12.07
2023-01-31T11:45:24.199Z,12.20
2023-01-31T11:47:53.222Z,13.43
2023-01-31T11:50:38.877Z,12.33
2023-01-31T11:53:24.170Z,11.90
2023-01-31T11:55:54.844Z,11.87
2023-01-31T11:58:26.340Z,12.37
2023-01-31T12:01:08.844Z,11.10
2023-01-31T12:03:37.018Z,12.63
2023-01-31T12:06:08.755Z,12.70
2023-01-31T12:08:39.150Z,11.70
2023-01-31T12:11:25.373Z,12.67
2023-01-31T12:13:54.244Z,12.07
2023-01-31T12:16:24.935Z,11.20
2023-01-31T12:19:12.727Z,10.63
2023-01-31T12:22:11.094Z,10.00
2023-01-31T12:25:02.179Z,12.20
2023-01-31T12:27:40.770Z,11.13
2023-01-31T12:30:31.924Z,9.97
2023-01-31T12:33:31.646Z,11.57
2023-01-31T12:36:31.066Z,10.50
2023-01-31T12:39:15.640Z,10.10
2023-01-31T12:42:16.986Z,10.77
2023-01-31T12:44:51.755Z,10.80
2023-01-31T12:47:45.589Z,10.43
2023-01-31T12:50:30.033Z,9.30
2023-01-31T12:53:22.944Z,10.00
2023-01-31T12:55:55.800Z,9.53
2023-01-31T12:58:46.877Z,9.90
2023-01-31T13:01:24.264Z,9.60
2023-01-31T13:04:26.672Z,12.70
2023-01-31T13:06:58.682Z,10.10
2023-01-31T13:09:32.032Z,9.63
2023-01-31T13:12:09.038Z,9.67
2023-01-31T13:14:58.957Z,9.10
2023-01-31T13:17:28.388Z,10.03
2023-01-31T13:20:01.922Z,9.60
2023-01-31T13:22:36.519Z,11.00
2023-01-31T13:25:15.115Z,9.67
2023-01-31T13:27:47.276Z,10.90
2023-01-31T13:30:30.934Z,8.37
2023-01-31T13:32:57.778Z,8.20
2023-01-31T13:35:38.027Z,9.50
2023-01-31T13:38:11.486Z,8.57
2023-01-31T13:40:54.821Z,8.97
2023-01-31T13:43:21.389Z,8.80
2023-01-31T13:46:02.559Z,7.80
2023-01-31T13:48:40.112Z,7.63
2023-01-31T13:51:19.500Z,8.00
2023-01-31T13:53:54.343Z,7.80
2023-01-31T13:56:29.827Z,8.17
2023-01-31T13:58:57.134Z,7.50
2023-01-31T14:01:30.986Z,8.00
2023-01-31T14:04:16.124Z,7.70
2023-01-31T14:07:02.763Z,7.73
2023-01-31T14:09:37.051Z,7.90
2023-01-31T14:12:09.233Z,6.97
2023-01-31T14:14:41.760Z,7.60
2023-01-31T14:17:34.343Z,7.33
2023-01-31T14:20:03.182Z,7.93
2023-01-31T14:22:35.018Z,12.13
2023-01-31T14:25:10.367Z,7.57
2023-01-31T14:28:01.693Z,8.60
2023-01-31T14:30:42.683Z,8.20
2023-01-31T14:33:19.546Z,7.13
2023-01-31T14:36:04.945Z,7.33
2023-01-31T14:38:51.785Z,6.80
2023-01-31T14:41:55.448Z,6.40
2023-01-31T14:44:39.901Z,6.67
2023-01-31T14:47:29.382Z,5.97
2023-01-31T14:50:24.012Z,6.17
2023-01-31T14:53:09.937Z,6.13
2023-01-31T14:55:47.881Z,7.03
2023-01-31T14:58:21.289Z,6.30
2023-01-31T15:00:51.732Z,6.20
2023-01-31T15:03:34.580Z,6.87
2023-01-31T15:06:09.617Z,7.20
2023-01-31T15:08:39.672Z,8.13
2023-01-31T15:11:40.677Z,6.33
2023-01-31T15:14:35.092Z,7.13
2023-01-31T15:17:27.267Z,6.37
2023-01-31T15:20:17.392Z,6.33
2023-01-31T15:22:46.584Z,5.77
2023-01-31T15:25:32.874Z,6.30
2023-01-31T15:28:01.559Z,6.03
2023-01-31T15:30:34.047Z,6.90
2023-01-31T15:33:08.439Z,7.10
2023-01-31T15:35:44.374Z,7.67
2023-01-31T15:38:22.244Z,8.53
2023-01-31T15:41:05.433Z,8.57
2023-01-31T15:43:31.964Z,8.17
2023-01-31T15:45:58.758Z,9.93
2023-01-31T15:48:25.389Z,7.90
2023-01-31T15:50:54.833Z,8.47
2023-01-31T15:53:26.540Z,11.53
2023-01-31T15:55:59.613Z,8.00
2023-01-31T15:58:28.989Z,5.27
2023-01-31T16:00:59.142Z,7.50
2023-01-31T16:03:31.833Z,6.27
2023-01-31T16:05:59.860Z,6.73
2023-01-31T16:08:35.913Z,5.43
2023-01-31T16:11:05.854Z,4.97
2023-01-31T16:13:39.172Z,8.07
2023-01-31T16:16:10.837Z,7.47
2023-01-31T16:18:38.323Z,5.10
2023-01-31T16:21:33.156Z,4.30
2023-01-31T16:24:08.803Z,5.73
2023-01-31T16:26:38.714Z,5.70
2023-01-31T16:29:32.518Z,6.00
2023-01-31T16:32:00.363Z,8.43
2023-01-31T16:34:30.996Z,5.60
2023-01-31T16:37:03.351Z,3.63
2023-01-31T16:39:43.773Z,3.60
2023-01-31T16:42:18.095Z,4.87
2023-01-31T16:44:46.216Z,3.33
2023-01-31T16:47:33.979Z,3.43
2023-01-31T16:50:22.594Z,4.10
2023-01-31T16:53:06.382Z,3.70
2023-01-31T16:55:33.091Z,2.03
2023-01-31T16:57:59.818Z,2.90
2023-01-31T17:00:27.356Z,3.67
2023-01-31T17:02:56.597Z,4.10
2023-01-31T17:05:29.176Z,3.13
2023-01-31T17:07:57.814Z,2.93
2023-01-31T17:10:29.069Z,3.30
2023-01-31T17:13:01.623Z,2.43
2023-01-31T17:15:28.190Z,2.77
2023-01-31T17:17:55.887Z,4.83
2023-01-31T17:20:23.014Z,6.33
2023-01-31T17:22:57.178Z,7.00
2023-01-31T17:25:32.430Z,5.10
2023-01-31T17:27:59.021Z,8.27
2023-01-31T17:30:28.791Z,7.57
2023-01-31T17:32:57.064Z,4.87
2023-01-31T17:35:32.358Z,2.80
2023-01-31T17:37:58.972Z,3.93
2023-01-31T17:40:25.462Z,2.20
2023-01-31T17:43:03.789Z,3.73
2023-01-31T17:45:32.039Z,2.83
2023-01-31T17:47:59.039Z,2.47
2023-01-31T17:50:27.939Z,2.90
2023-01-31T17:52:54.882Z,2.83
2023-01-31T17:55:23.143Z,2.70
2023-01-31T17:57:51.466Z,2.50
2023-01-31T18:00:19.335Z,3.50
2023-01-31T18:02:46.210Z,2.40
2023-01-31T18:05:18.690Z,3.50
2023-01-31T18:07:49.894Z,3.10
2023-01-31T18:10:17.409Z,2.43
2023-01-31T18:12:43.945Z,2.73
2023-01-31T18:15:11.220Z,3.27
2023-01-31T18:17:37.820Z,7.40
2023-01-31T18:20:04.725Z,13.90
2023-01-31T18:22:31.641Z,9.93
2023-01-31T18:24:58.152Z,3.27
2023-01-31T18:27:24.727Z,3.13
2023-01-31T18:29:51.238Z,3.80
2023-01-31T18:32:20.145Z,3.20
2023-01-31T18:34:47.131Z,3.83
2023-01-31T18:37:19.938Z,4.57
2023-01-31T18:39:50.876Z,3.40
2023-01-31T18:42:18.277Z,3.43
2023-01-31T18:44:44.983Z,2.70
2023-01-31T18:47:12.361Z,2.70
2023-01-31T18:49:38.986Z,3.63
2023-01-31T18:52:08.874Z,4.03
2023-01-31T18:54:37.455Z,4.13
2023-01-31T18:57:04.447Z,4.60
2023-01-31T18:59:33.568Z,3.20
2023-01-31T19:02:02.576Z,3.80
2023-01-31T19:04:29.184Z,3.40
2023-01-31T19:06:55.731Z,7.57
2023-01-31T19:09:22.447Z,5.50
2023-01-31T19:11:49.215Z,6.50
2023-01-31T19:14:16.450Z,5.60
2023-01-31T19:16:44.676Z,9.77
2023-01-31T19:19:11.843Z,7.90
2023-01-31T19:21:38.536Z,8.40
2023-01-31T19:24:07.746Z,3.77
2023-01-31T19:26:35.534Z,5.13
2023-01-31T19:29:03.730Z,4.20
2023-01-31T19:31:32.630Z,4.97
2023-01-31T19:34:02.371Z,5.07
2023-01-31T19:36:34.495Z,5.33
2023-01-31T19:39:02.036Z,4.70
2023-01-31T19:41:28.873Z,5.43
2023-01-31T19:43:58.517Z,4.40
2023-01-31T19:46:28.205Z,5.30
2023-01-31T19:48:59.132Z,5.37
2023-01-31T19:51:26.724Z,4.27
2023-01-31T19:53:55.778Z,3.57
2023-01-31T19:56:24.187Z,5.13
2023-01-31T19:58:51.101Z,3.87
2023-01-31T20:01:18.722Z,3.37
2023-01-31T20:03:45.996Z,3.67
2023-01-31T20:06:15.351Z,4.20
2023-01-31T20:08:42.865Z,3.50
2023-01-31T20:11:10.838Z,5.30
2023-01-31T20:13:37.412Z,3.67
2023-01-31T20:16:07.035Z,4.07
2023-01-31T20:18:35.225Z,3.87
2023-01-31T20:21:02.244Z,4.20
2023-01-31T20:23:29.719Z,4.47
2023-01-31T20:25:56.776Z,3.50
2023-01-31T20:28:24.693Z,4.27
2023-01-31T20:30:51.689Z,3.80
2023-01-31T20:33:19.068Z,3.83
2023-01-31T20:35:46.259Z,4.73
2023-01-31T20:38:13.029Z,3.00
2023-01-31T20:40:39.564Z,4.20
2023-01-31T20:43:06.906Z,3.40
2023-01-31T20:45:34.248Z,4.20
2023-01-31T20:48:00.978Z,4.67
2023-01-31T20:50:27.994Z,3.30
2023-01-31T20:52:55.781Z,4.03
2023-01-31T20:55:23.672Z,3.47
2023-01-31T20:57:51.047Z,3.37
2023-01-31T21:00:19.732Z,4.40
2023-01-31T21:02:48.878Z,5.13
2023-01-31T21:05:19.754Z,3.60
2023-01-31T21:07:46.262Z,5.37
2023-01-31T21:10:13.188Z,3.07
2023-01-31T21:12:39.871Z,4.10
2023-01-31T21:15:06.865Z,3.00
2023-01-31T21:17:39.877Z,3.77
2023-01-31T21:20:08.452Z,3.20
2023-01-31T21:22:35.269Z,3.20
2023-01-31T21:25:02.059Z,3.13
2023-01-31T21:27:28.631Z,4.20
2023-01-31T21:29:55.209Z,4.20
2023-01-31T21:32:21.708Z,4.07
2023-01-31T21:34:48.596Z,3.83
2023-01-31T21:37:15.464Z,3.03
2023-01-31T21:39:42.573Z,4.63
2023-01-31T21:42:15.935Z,2.83
2023-01-31T21:44:43.006Z,3.10
2023-01-31T21:47:09.856Z,3.57
2023-01-31T21:49:37.088Z,3.00
2023-01-31T21:52:04.911Z,3.37
2023-01-31T21:54:31.805Z,3.97
2023-01-31T21:56:58.603Z,3.50
2023-01-31T21:59:25.748Z,2.80
2023-01-31T22:01:52.333Z,3.10
2023-01-31T22:04:23.253Z,3.80
2023-01-31T22:06:50.946Z,3.07
2023-01-31T22:09:18.031Z,3.10
2023-01-31T22:11:46.691Z,4.97
2023-01-31T22:14:14.948Z,4.00
2023-01-31T22:16:42.050Z,2.40
2023-01-31T22:19:10.891Z,3.60
2023-01-31T22:21:37.924Z,2.83
2023-01-31T22:24:06.539Z,3.30
2023-01-31T22:26:35.803Z,4.30
2023-01-31T22:29:05.815Z,4.70
2023-01-31T22:31:32.663Z,2.57
2023-01-31T22:34:00.144Z,3.30
2023-01-31T22:36:27.074Z,2.80
2023-01-31T22:38:54.809Z,3.47
2023-01-31T22:41:21.930Z,2.80
2023-01-31T22:43:51.017Z,3.40
2023-01-31T22:46:23.157Z,3.30
2023-01-31T22:48:50.897Z,2.90
2023-01-31T22:51:20.588Z,4.53
2023-01-31T22:53:47.619Z,3.00
2023-01-31T22:56:19.957Z,2.00
2023-01-31T22:58:47.512Z,2.23
2023-01-31T23:01:20.375Z,2.40
2023-01-31T23:03:48.718Z,3.40
2023-01-31T23:06:17.217Z,2.40
2023-01-31T23:08:44.204Z,2.90
2023-01-31T23:11:13.936Z,2.87
2023-01-31T23:13:41.036Z,4.13
2023-01-31T23:16:09.176Z,3.60
2023-01-31T23:18:36.227Z,3.70
2023-01-31T23:21:17.947Z,3.10
2023-01-31T23:23:45.407Z,3.77
2023-01-31T23:26:12.665Z,3.40
2023-01-31T23:28:39.963Z,3.47
2023-01-31T23:31:07.000Z,2.70
2023-01-31T23:33:33.575Z,4.73
2023-01-31T23:36:00.155Z,3.20
2023-01-31T23:38:26.666Z,4.03
2023-01-31T23:40:54.216Z,3.10
2023-01-31T23:43:21.440Z,4.30
2023-01-31T23:45:48.064Z,3.53
2023-01-31T23:48:14.951Z,3.20
2023-01-31T23:50:41.455Z,3.10
2023-01-31T23:53:07.985Z,2.83
2023-01-31T23:55:34.496Z,3.47
2023-01-31T23:58:01.085Z,3.63
